North Platte

Airport
ICAO code: 
KLBF
Summary
ICAO Region: 
NAM
Territory: 
Location: 
North Platte, Lincoln County, Nebraska,
Coordinates: 
Aerial View: 
41° 7' 34.326" N, 100° 41' 2.393" W
Metar
Observation
KLBF 021553Z AUTO 30004KT 10SM CLR 10/01 A3004 RMK AO2 SLP177 T01000011
Station
North Platte, North Platte Regional Airport
Date/Time
2021-12-02 15:53:00
Wind direction
300°
Wind speed
04 kts
Lowest cloud amount
n/a
Temperature
10°C
Dew point
1.1°C
Humidity
53%
Weather condition
n/a

Description

North Platte Regional Airport, also known as Lee Bird Field, is a public use airport located 3 nm east of the central business district of North Platte, a city in Lincoln County, Nebraska, United States.

Climatology

Humid continental climate (Köppen climate classification Dfa) - characterized by four seasons: cold, windy, snowy winters, mild springs, hot, humid summers, and crisp and relatively short autumns. Precipitation reaches its lowest in January and February and peaks in summer and latter half of spring.

Runways

Designator Length Width Surface Rops
17/35 1352 30 ASP Yes/Yes
12/30 2438 46 CON Yes/Yes
Airport map: 
Aerial View: 

SKYbrary Partners:

Safety knowledge contributed by: